ADDS METAR Data INFO
IDs: Format: Raw Decoded Include TAF

Data at: 2300 UTC 21 Feb 2018

KAIZ 212256Z AUTO 9SM OVC008 M03/M04 A3051 RMK AO2 CIG 006V012 SLP343 T10281039 FZRANO
KAIZ 212156Z AUTO 04007KT 5SM BR OVC009 M03/M04 A3046 RMK AO2 CIG 007V013 SLP325 T10281039 FZRANO
KAIZ 212056Z AUTO 04006KT 10SM OVC009 M03/M04 A3048 RMK AO2 SLP332 T10281039 55010 FZRANO
KAIZ 211956Z AUTO 04007KT 10SM OVC011 M03/M04 A3046 RMK AO2 SLP324 T10281044 FZRANO
KAIZ 211856Z AUTO 04009KT 10SM OVC011 M03/M04 A3049 RMK AO2 SLP335 T10281044 FZRANO
KAIZ 211756Z AUTO 03009KT 10SM OVC011 M03/M04 A3051 RMK AO2 SLP342 T10331044 11033 21044 50006 FZRANO
KAIZ 211656Z AUTO VRB04KT 10SM OVC011 M04/M05 A3054 RMK AO2 SLP352 T10391050 FZRANO
KAIZ 211556Z AUTO 02005KT 10SM OVC011 M04/M06 A3053 RMK AO2 SLP347 T10391056 FZRANO
KAIZ 211456Z AUTO 02007KT 10SM OVC011 M04/M06 A3050 RMK AO2 SLP336 T10441056 50014 FZRANO
KAIZ 211356Z AUTO VRB03KT 10SM OVC013 M04/M06 A3053 RMK AO2 SLP348 T10441056 FZRANO
KAIZ 211256Z AUTO 02004KT 10SM OVC011 M04/M06 A3046 RMK AO2 SLP324 T10441056 FZRANO
KAIZ 211228Z AUTO VRB04KT 10SM OVC011 M04/M06 A3047 RMK AO2 FZRANO
KAIZ 210756Z AUTO 34006KT 5SM BR OVC007 M03/M04 A3037 RMK AO2 UPB13E48SNB0657E13 CIG 005V010 SLP290 P0000 T10281039 FZRANO
KAIZ 210728Z AUTO 33005G14KT 3SM UP BR OVC007 M03/M03 A3035 RMK AO2 UPB13SNB0657E13 P0000 FZRANO
KAIZ 210720Z AUTO 35007KT 2 1/2SM UP BR OVC007 M03/M03 A3033 RMK AO2 UPB13SNB0657E13 CIG 006V011 P0000 FZRANO
KAIZ 210656Z AUTO 35007KT 9SM OVC009 M03/M03 A3034 RMK AO2 SNE27 SLP280 P0002 T10281033 FZRANO
KAIZ 210622Z AUTO 34009G14KT 320V030 3SM -SN BR BKN007 OVC017 M02/M03 A3030 RMK AO2 CIG 005V012 P0002 FZRANO
KAIZ 210606Z AUTO 33006G15KT 1 3/4SM -SN BR BKN009 OVC017 M02/M03 A3031 RMK AO2 CIG 006V012 P0001 FZRANO
KAIZ 210556Z AUTO 33008G18KT 310V040 3SM -SN BR OVC009 M02/M02 A3029 RMK AO2 CIG 006V012 SLP262 P0007 60069 T10171022 10011 21017 402001017 51029 FZRANO
KAIZ 201456Z AUTO 18011G16KT 10SM OVC021 19/16 A2986 RMK AO2 SLP106 T01940161 50004
KAIZ 201356Z AUTO 18013G21KT 10SM BKN023 OVC028 19/16 A2986 RMK AO2 SLP106 T01940161
KAIZ 201256Z AUTO 18013G17KT 10SM OVC028 19/16 A2985 RMK AO2 SLP101 T01890156
KAIZ 201156Z AUTO 18010KT 10SM FEW037 BKN050 OVC060 19/15 A2984 RMK AO2 SLP099 60004 70096 T01890150 10194 20172 51011